Time;durP1;ratioP1;P1;durP2;ratioP2;P2;SDS_P1;SDS_P2;PMS_P1;PMS_P2;Temp;Humidity;BMP_temperature;BMP_pressure;BME280_temperature;BME280_humidity;BME280_pressure;Samples;Min_cycle;Max_cycle;Signal;HPM_P1;HPM_P2
2022/05/06 00:00:06;;;;;;;1999.90;999.90;;;15.40;58.30;;;;;;4992885;28;20049;-80
2022/05/06 00:02:32;;;;;;;1999.90;999.90;;;15.40;58.40;;;;;;5025822;28;20482;-80
2022/05/06 00:04:58;;;;;;;1999.90;999.90;;;15.40;58.50;;;;;;5027224;28;20033;-80
2022/05/06 00:07:24;;;;;;;1999.90;999.90;;;15.30;58.50;;;;;;5028547;28;20052;-80
2022/05/06 00:09:50;;;;;;;1999.90;999.90;;;15.30;58.60;;;;;;5041089;28;20022;-80
2022/05/06 00:12:18;;;;;;;1999.90;999.90;;;15.30;58.60;;;;;;5042221;28;20060;-80
2022/05/06 00:14:45;;;;;;;1999.90;999.90;;;15.30;58.60;;;;;;5029174;28;20029;-80
2022/05/06 00:17:11;;;;;;;1999.90;999.90;;;15.30;58.70;;;;;;5037531;28;20073;-80
2022/05/06 00:19:38;;;;;;;1999.90;999.90;;;15.20;58.60;;;;;;5017243;28;20048;-80
2022/05/06 00:22:04;;;;;;;1999.90;999.90;;;15.20;58.60;;;;;;5031193;28;20034;-80
2022/05/06 00:24:30;;;;;;;1999.90;999.90;;;15.20;58.60;;;;;;5032982;28;20382;-80
2022/05/06 00:26:57;;;;;;;1999.90;999.90;;;15.20;58.60;;;;;;5032825;28;20050;-80
2022/05/06 00:29:23;;;;;;;1999.90;999.90;;;15.20;58.70;;;;;;5022087;28;20052;-80
2022/05/06 00:31:49;;;;;;;1999.90;999.90;;;15.20;58.80;;;;;;5019470;28;20053;-80
2022/05/06 00:34:16;;;;;;;1999.90;999.90;;;15.10;58.80;;;;;;5030471;28;20037;-80
2022/05/06 00:36:42;;;;;;;1999.90;999.90;;;15.10;58.90;;;;;;5029995;28;20044;-80
2022/05/06 00:39:08;;;;;;;1999.90;999.90;;;15.00;59.00;;;;;;5033024;28;20038;-80
2022/05/06 00:41:35;;;;;;;1999.90;999.90;;;15.00;59.00;;;;;;5031157;28;20033;-80
2022/05/06 00:44:01;;;;;;;1999.90;999.90;;;15.00;59.00;;;;;;5012897;28;20038;-80
2022/05/06 00:46:28;;;;;;;1999.90;999.90;;;15.00;59.10;;;;;;5012483;28;20041;-80
2022/05/06 00:48:55;;;;;;;1999.90;999.90;;;15.00;59.10;;;;;;5043939;28;20505;-80
2022/05/06 00:51:21;;;;;;;1999.90;999.90;;;14.90;59.00;;;;;;5028994;28;20429;-80
2022/05/06 00:53:47;;;;;;;1999.90;999.90;;;14.90;59.00;;;;;;5031661;28;20033;-80
2022/05/06 00:56:15;;;;;;;1999.90;999.90;;;14.90;59.00;;;;;;4995882;28;20037;-80
2022/05/06 00:58:43;;;;;;;1999.90;999.90;;;14.90;59.00;;;;;;5022188;28;20041;-80
2022/05/06 01:01:10;;;;;;;1999.90;999.90;;;14.90;59.10;;;;;;5040702;28;20044;-80
2022/05/06 01:03:36;;;;;;;1999.90;999.90;;;14.90;59.10;;;;;;5029611;28;20037;-80
2022/05/06 01:06:06;;;;;;;1999.90;999.90;;;14.90;59.10;;;;;;5014860;28;20048;-80
2022/05/06 01:08:32;;;;;;;1999.90;999.90;;;14.90;59.10;;;;;;5012780;28;20033;-80
2022/05/06 01:10:58;;;;;;;1999.90;999.90;;;14.80;59.10;;;;;;5012626;28;20048;-80
2022/05/06 01:13:24;;;;;;;1999.90;999.90;;;14.80;59.10;;;;;;5012166;28;20037;-80
2022/05/06 01:15:54;;;;;;;1999.90;999.90;;;14.80;59.10;;;;;;5029508;28;20040;-80
2022/05/06 01:18:20;;;;;;;1999.90;999.90;;;14.80;59.10;;;;;;5028753;28;20029;-80
2022/05/06 01:20:49;;;;;;;1999.90;999.90;;;14.70;59.20;;;;;;5031098;28;20026;-80
2022/05/06 01:23:15;;;;;;;1999.90;999.90;;;14.80;59.20;;;;;;5029918;28;20033;-80
2022/05/06 01:25:43;;;;;;;1999.90;999.90;;;14.70;59.20;;;;;;5041054;28;20030;-80
2022/05/06 01:28:10;;;;;;;1999.90;999.90;;;14.70;59.20;;;;;;5012180;28;20029;-80
2022/05/06 01:30:42;;;;;;;1999.90;999.90;;;14.70;59.20;;;;;;5028500;28;20514;-80
2022/05/06 01:33:09;;;;;;;1999.90;999.90;;;14.70;59.20;;;;;;5015843;28;20049;-81
2022/05/06 01:35:45;;;;;;;1999.90;999.90;;;14.70;59.30;;;;;;5028432;28;20462;-80
2022/05/06 01:38:31;;;;;;;1999.90;999.90;;;14.70;59.30;;;;;;5028368;28;20030;-80
2022/05/06 01:41:02;;;;;;;1999.90;999.90;;;14.60;59.20;;;;;;5029624;28;20034;-80
2022/05/06 01:43:42;;;;;;;1999.90;999.90;;;14.60;59.20;;;;;;5012836;28;20036;-80
2022/05/06 01:46:09;;;;;;;1999.90;999.90;;;14.60;59.30;;;;;;5009161;28;20034;-80
2022/05/06 01:48:36;;;;;;;1999.90;999.90;;;14.60;59.30;;;;;;5045298;28;20861;-80
2022/05/06 01:51:02;;;;;;;1999.90;999.90;;;14.50;59.30;;;;;;5030807;28;20539;-80
2022/05/06 01:53:29;;;;;;;1999.90;999.90;;;14.50;59.40;;;;;;5027926;28;20056;-80
2022/05/06 01:55:55;;;;;;;1999.90;999.90;;;14.50;59.40;;;;;;5011548;28;20030;-80
2022/05/06 01:58:21;;;;;;;1999.90;999.90;;;14.50;59.40;;;;;;5028036;28;20048;-80
2022/05/06 02:00:47;;;;;;;1999.90;999.90;;;14.50;59.50;;;;;;5031519;28;20410;-80
2022/05/06 02:05:59;;;;;;;1999.90;999.90;;;14.50;59.50;;;;;;4995090;28;20041;-80
2022/05/06 02:08:26;;;;;;;1999.90;999.90;;;14.40;59.50;;;;;;5009591;28;20048;-80
2022/05/06 02:10:52;;;;;;;1999.90;999.90;;;14.40;59.60;;;;;;5009190;28;20041;-80
2022/05/06 02:13:19;;;;;;;1999.90;999.90;;;14.30;59.60;;;;;;5009180;28;20053;-80
2022/05/06 02:15:45;;;;;;;1999.90;999.90;;;14.30;59.70;;;;;;5008781;28;20033;-80
2022/05/06 02:18:11;;;;;;;1999.90;999.90;;;14.30;59.80;;;;;;4989884;28;20065;-80
2022/05/06 02:20:37;;;;;;;1999.90;999.90;;;14.30;59.80;;;;;;5009194;28;20037;-80
2022/05/06 02:23:04;;;;;;;1999.90;999.90;;;14.20;59.80;;;;;;5009487;28;20423;-80
2022/05/06 02:25:30;;;;;;;1999.90;999.90;;;14.20;59.80;;;;;;5008607;28;20038;-80
2022/05/06 02:27:56;;;;;;;1999.90;999.90;;;14.10;59.90;;;;;;5009379;28;20030;-80
2022/05/06 02:33:13;;;;;;;1999.90;999.90;;;14.10;60.00;;;;;;5016233;28;20396;-80
2022/05/06 02:35:41;;;;;;;1999.90;999.90;;;14.00;60.10;;;;;;5009349;28;20041;-80
2022/05/06 02:38:08;;;;;;;1999.90;999.90;;;14.00;60.20;;;;;;5008788;28;20041;-80
2022/05/06 02:40:35;;;;;;;1999.90;999.90;;;13.90;60.20;;;;;;5008918;28;20034;-80
2022/05/06 02:43:02;;;;;;;1999.90;999.90;;;13.90;60.30;;;;;;5016093;28;20049;-80
2022/05/06 02:45:28;;;;;;;1999.90;999.90;;;13.90;60.40;;;;;;5043781;28;20038;-80
2022/05/06 02:47:54;;;;;;;1999.90;999.90;;;13.80;60.40;;;;;;5029473;28;20550;-80
2022/05/06 02:50:20;;;;;;;1999.90;999.90;;;13.90;60.40;;;;;;5034282;28;20033;-80
2022/05/06 02:52:46;;;;;;;1999.90;999.90;;;13.80;60.40;;;;;;5027637;28;20041;-80
2022/05/06 02:55:12;;;;;;;1999.90;999.90;;;13.80;60.40;;;;;;5040610;28;20376;-80
2022/05/06 02:57:38;;;;;;;1999.90;999.90;;;13.80;60.50;;;;;;5029387;28;20038;-80
2022/05/06 03:00:05;;;;;;;1999.90;999.90;;;13.80;60.60;;;;;;5029302;28;20045;-80
2022/05/06 03:02:31;;;;;;;1999.90;999.90;;;13.80;60.60;;;;;;5032367;28;20517;-80
2022/05/06 03:04:57;;;;;;;1999.90;999.90;;;13.70;60.60;;;;;;5031304;28;20030;-80
2022/05/06 03:07:23;;;;;;;1999.90;999.90;;;13.70;60.70;;;;;;5027568;28;20060;-80
2022/05/06 03:09:52;;;;;;;1999.90;999.90;;;13.70;60.70;;;;;;5041592;28;20026;-80
2022/05/06 03:12:29;;;;;;;1999.90;999.90;;;13.70;60.80;;;;;;5026068;28;20054;-80
2022/05/06 03:14:55;;;;;;;1999.90;999.90;;;13.70;60.80;;;;;;5014862;28;20033;-80
2022/05/06 03:17:22;;;;;;;1999.90;999.90;;;13.70;61.70;;;;;;5026906;28;20061;-80
2022/05/06 03:19:48;;;;;;;1999.90;999.90;;;13.70;60.90;;;;;;5026482;28;20025;-80
2022/05/06 03:22:15;;;;;;;1999.90;999.90;;;13.60;60.90;;;;;;5027502;28;20037;-80
2022/05/06 03:24:42;;;;;;;1999.90;999.90;;;13.60;60.90;;;;;;5011462;28;20064;-80
2022/05/06 03:27:59;;;;;;;1999.90;999.90;;;13.60;61.10;;;;;;5029887;28;20029;-80
2022/05/06 03:29:54;;;;;;;1999.90;999.90;;;13.50;61.10;;;;;;5030822;28;20037;-80
2022/05/06 03:32:22;;;;;;;1999.90;999.90;;;13.50;61.10;;;;;;5016601;28;20050;-80
2022/05/06 03:34:51;;;;;;;1999.90;999.90;;;13.50;61.20;;;;;;5030861;28;20041;-80
2022/05/06 03:37:17;;;;;;;1999.90;999.90;;;13.40;61.20;;;;;;5026887;28;20478;-80
2022/05/06 03:39:43;;;;;;;1999.90;999.90;;;13.50;61.20;;;;;;5044062;28;20033;-80
2022/05/06 03:42:09;;;;;;;1999.90;999.90;;;13.50;61.30;;;;;;5030916;28;20466;-80
2022/05/06 03:44:35;;;;;;;1999.90;999.90;;;13.40;61.20;;;;;;5027404;28;20029;-80
2022/05/06 03:47:01;;;;;;;1999.90;999.90;;;13.40;61.20;;;;;;5027140;28;20049;-80
2022/05/06 03:49:27;;;;;;;1999.90;999.90;;;13.40;61.30;;;;;;5037559;28;20084;-80
2022/05/06 03:51:54;;;;;;;1999.90;999.90;;;13.40;61.30;;;;;;5025759;28;20033;-80
2022/05/06 03:54:20;;;;;;;1999.90;999.90;;;13.40;61.40;;;;;;5042291;28;20470;-80
2022/05/06 03:56:46;;;;;;;1999.90;999.90;;;13.30;61.40;;;;;;5010622;28;20034;-80
2022/05/06 03:59:12;;;;;;;1999.90;999.90;;;13.30;61.50;;;;;;5028768;28;20041;-80
2022/05/06 04:01:38;;;;;;;1999.90;999.90;;;13.30;62.40;;;;;;5037924;28;20038;-80
2022/05/06 04:04:05;;;;;;;1999.90;999.90;;;13.30;61.60;;;;;;5026292;28;20037;-80
2022/05/06 04:06:33;;;;;;;1999.90;999.90;;;13.30;61.60;;;;;;5028802;28;20061;-80
2022/05/06 04:08:59;;;;;;;1999.90;999.90;;;13.30;61.70;;;;;;5011938;28;20049;-81
2022/05/06 04:11:25;;;;;;;1999.90;999.90;;;13.30;61.70;;;;;;5028951;28;20045;-81
2022/05/06 04:13:52;;;;;;;1999.90;999.90;;;13.30;61.70;;;;;;5029469;28;20573;-80
2022/05/06 04:16:18;;;;;;;1999.90;999.90;;;13.30;61.70;;;;;;5026703;28;20049;-80
2022/05/06 04:18:44;;;;;;;1999.90;999.90;;;13.30;61.70;;;;;;5011966;28;20030;-80
2022/05/06 04:23:55;;;;;;;1999.90;999.90;;;13.30;61.70;;;;;;5029202;28;20059;-81
2022/05/06 04:26:21;;;;;;;1999.90;999.90;;;13.30;61.70;;;;;;5025921;28;20037;-81
2022/05/06 04:28:47;;;;;;;1999.90;999.90;;;13.30;61.70;;;;;;5009541;28;20426;-81
2022/05/06 04:31:13;;;;;;;1999.90;999.90;;;13.30;61.70;;;;;;5025399;28;20045;-81
2022/05/06 04:33:39;;;;;;;1999.90;999.90;;;13.20;61.70;;;;;;5042950;28;20050;-81
2022/05/06 04:36:06;;;;;;;1999.90;999.90;;;13.20;61.80;;;;;;5012368;28;20415;-81
2022/05/06 04:38:32;;;;;;;1999.90;999.90;;;13.20;61.80;;;;;;5028877;28;20045;-81
2022/05/06 04:41:01;;;;;;;1999.90;999.90;;;13.20;61.90;;;;;;5037378;28;20037;-81
2022/05/06 04:43:27;;;;;;;1999.90;999.90;;;13.20;61.90;;;;;;4995873;28;20052;-81
2022/05/06 04:45:54;;;;;;;1999.90;999.90;;;13.20;61.90;;;;;;5025174;28;20037;-81
2022/05/06 04:48:20;;;;;;;1999.90;999.90;;;13.10;61.90;;;;;;5042009;28;20037;-81
2022/05/06 04:50:46;;;;;;;1999.90;999.90;;;13.10;61.90;;;;;;5026197;28;20025;-81
2022/05/06 04:53:13;;;;;;;1999.90;999.90;;;13.10;61.90;;;;;;4992376;28;20057;-82
2022/05/06 04:55:42;;;;;;;1999.90;999.90;;;13.10;62.00;;;;;;5019331;28;20068;-82
2022/05/06 04:58:09;;;;;;;1999.90;999.90;;;13.10;62.10;;;;;;5009518;28;20036;-82
2022/05/06 05:00:35;;;;;;;1999.90;999.90;;;13.10;62.00;;;;;;5029039;28;20036;-81
2022/05/06 05:03:01;;;;;;;1999.90;999.90;;;13.10;62.10;;;;;;5031221;28;20041;-82
2022/05/06 05:05:27;;;;;;;1999.90;999.90;;;13.10;62.10;;;;;;5028822;28;20026;-82
2022/05/06 05:07:54;;;;;;;1999.90;999.90;;;13.10;62.10;;;;;;5012441;28;20427;-82
2022/05/06 05:10:23;;;;;;;1999.90;999.90;;;13.00;62.00;;;;;;5030285;28;20029;-81
2022/05/06 05:12:49;;;;;;;1999.90;999.90;;;13.10;62.10;;;;;;5028213;28;20041;-81
2022/05/06 05:15:15;;;;;;;1999.90;999.90;;;13.10;62.10;;;;;;5028239;28;20036;-81
2022/05/06 05:17:42;;;;;;;1999.90;999.90;;;13.10;62.10;;;;;;5028639;28;20048;-81
2022/05/06 05:20:10;;;;;;;1999.90;999.90;;;13.10;62.00;;;;;;5028784;28;20052;-81
2022/05/06 05:22:36;;;;;;;1999.90;999.90;;;13.20;62.00;;;;;;5028888;28;20040;-81
2022/05/06 05:25:03;;;;;;;1999.90;999.90;;;13.40;61.80;;;;;;5030491;28;20038;-82
2022/05/06 05:27:31;;;;;;;1999.90;999.90;;;13.60;61.60;;;;;;5045722;28;20029;-82
2022/05/06 05:29:57;;;;;;;1999.90;999.90;;;13.80;61.20;;;;;;5016055;28;20037;-82
2022/05/06 05:32:24;;;;;;;1999.90;999.90;;;14.10;60.90;;;;;;5014420;28;20486;-81
2022/05/06 05:34:50;;;;;;;1999.90;999.90;;;14.30;60.60;;;;;;5014688;28;20493;-82
2022/05/06 05:37:17;;;;;;;1999.90;999.90;;;14.50;60.30;;;;;;5012187;28;20033;-82
2022/05/06 05:39:43;;;;;;;1999.90;999.90;;;14.70;60.20;;;;;;5031632;28;20505;-82
2022/05/06 05:42:09;;;;;;;1999.90;999.90;;;14.80;60.00;;;;;;5036341;28;20026;-82
2022/05/06 05:50:06;;;;;;;1999.90;999.90;;;15.40;59.50;;;;;;5034394;28;20478;-82
2022/05/06 05:52:33;;;;;;;1999.90;999.90;;;15.70;59.30;;;;;;5014635;28;20045;-82
2022/05/06 05:54:59;;;;;;;1999.90;999.90;;;15.90;59.10;;;;;;5028347;28;20049;-82
2022/05/06 05:57:25;;;;;;;1999.90;999.90;;;16.10;58.90;;;;;;5031641;28;20033;-82
2022/05/06 05:59:51;;;;;;;1999.90;999.90;;;16.30;58.80;;;;;;5030256;28;20132;-82
2022/05/06 06:02:17;;;;;;;1999.90;999.90;;;16.40;58.60;;;;;;5030094;28;20037;-82
2022/05/06 06:04:44;;;;;;;1999.90;999.90;;;16.60;58.50;;;;;;5007101;28;20505;-82
2022/05/06 06:07:11;;;;;;;1999.90;999.90;;;16.70;58.40;;;;;;5027477;28;20034;-82
2022/05/06 06:09:37;;;;;;;1999.90;999.90;;;16.90;58.30;;;;;;5028105;28;20509;-82
2022/05/06 06:12:04;;;;;;;1999.90;999.90;;;17.00;58.20;;;;;;5029414;28;20021;-82
2022/05/06 06:14:30;;;;;;;1999.90;999.90;;;17.10;58.10;;;;;;5028952;28;20053;-82
2022/05/06 06:16:56;;;;;;;1999.90;999.90;;;17.30;58.00;;;;;;5037252;28;20041;-82
2022/05/06 06:19:22;;;;;;;1999.90;999.90;;;17.40;57.90;;;;;;5029253;28;20041;-82
2022/05/06 06:21:48;;;;;;;1999.90;999.90;;;17.60;57.80;;;;;;5011359;28;20516;-82
2022/05/06 06:24:15;;;;;;;1999.90;999.90;;;17.70;57.60;;;;;;5043840;28;20037;-82
2022/05/06 06:26:41;;;;;;;1999.90;999.90;;;17.70;57.60;;;;;;5031401;28;20037;-82
2022/05/06 06:29:09;;;;;;;1999.90;999.90;;;17.70;57.60;;;;;;5028630;28;20510;-82
2022/05/06 06:31:37;;;;;;;1999.90;999.90;;;17.70;57.60;;;;;;5029654;28;20126;-82
2022/05/06 06:34:03;;;;;;;1999.90;999.90;;;17.60;57.70;;;;;;5040938;28;20037;-82
2022/05/06 06:36:29;;;;;;;1999.90;999.90;;;17.60;57.80;;;;;;5026844;28;20037;-82
2022/05/06 06:38:55;;;;;;;1999.90;999.90;;;17.50;57.80;;;;;;5014320;28;20466;-82
2022/05/06 06:41:22;;;;;;;1999.90;999.90;;;17.50;57.90;;;;;;5028685;28;20033;-82
2022/05/06 06:43:48;;;;;;;1999.90;999.90;;;17.50;57.90;;;;;;5027284;28;20032;-82
2022/05/06 06:46:15;;;;;;;1999.90;999.90;;;17.50;57.90;;;;;;5026612;28;20029;-82
2022/05/06 06:48:42;;;;;;;1999.90;999.90;;;17.40;57.90;;;;;;5029006;28;20037;-82
2022/05/06 06:51:09;;;;;;;1999.90;999.90;;;17.40;57.80;;;;;;5030101;28;20033;-82
2022/05/06 06:53:35;;;;;;;1999.90;999.90;;;17.40;57.80;;;;;;5010848;28;20498;-82
2022/05/06 06:56:01;;;;;;;1999.90;999.90;;;17.30;57.80;;;;;;5026888;28;20040;-82
2022/05/06 06:58:27;;;;;;;1999.90;999.90;;;17.30;57.80;;;;;;5028291;28;20395;-82
2022/05/06 07:00:53;;;;;;;1999.90;999.90;;;17.40;57.80;;;;;;5040795;28;20026;-82
2022/05/06 07:03:20;;;;;;;1999.90;999.90;;;17.50;57.60;;;;;;5030951;28;20033;-82
2022/05/06 07:14:02;;;;;;;1999.90;999.90;;;18.10;56.60;;;;;;5029128;28;20045;-82
2022/05/06 07:16:28;;;;;;;1999.90;999.90;;;18.30;56.50;;;;;;5039319;28;20422;-82
2022/05/06 07:18:54;;;;;;;1999.90;999.90;;;18.40;56.30;;;;;;5026717;28;20479;-82
2022/05/06 07:21:20;;;;;;;1999.90;999.90;;;18.40;56.20;;;;;;5042940;28;20033;-82
2022/05/06 07:23:46;;;;;;;1999.90;999.90;;;18.40;56.10;;;;;;5026781;28;20037;-82
2022/05/06 07:26:13;;;;;;;1999.90;999.90;;;18.50;56.10;;;;;;5027408;28;20029;-82
2022/05/06 07:28:39;;;;;;;1999.90;999.90;;;18.50;56.10;;;;;;5038497;28;20041;-82
2022/05/06 07:31:05;;;;;;;1999.90;999.90;;;18.50;56.20;;;;;;5009882;28;20367;-82
2022/05/06 07:33:32;;;;;;;1999.90;999.90;;;18.50;56.20;;;;;;5043795;28;20049;-82
2022/05/06 07:35:59;;;;;;;1999.90;999.90;;;18.60;56.10;;;;;;5029864;28;20030;-82
2022/05/06 07:38:25;;;;;;;1999.90;999.90;;;18.70;55.90;;;;;;5029127;28;20045;-82
2022/05/06 07:40:51;;;;;;;1999.90;999.90;;;18.70;55.70;;;;;;5006486;28;20048;-82
2022/05/06 07:43:17;;;;;;;1999.90;999.90;;;18.70;55.80;;;;;;5026675;28;20386;-82
2022/05/06 07:45:43;;;;;;;1999.90;999.90;;;18.80;55.80;;;;;;5027617;28;20037;-82
2022/05/06 07:48:10;;;;;;;1999.90;999.90;;;18.80;55.60;;;;;;5030703;28;20026;-82
2022/05/06 07:50:44;;;;;;;1999.90;999.90;;;18.90;55.40;;;;;;5014632;28;20417;-82
2022/05/06 07:53:13;;;;;;;1999.90;999.90;;;19.00;55.20;;;;;;5030685;28;20033;-82
2022/05/06 07:55:40;;;;;;;1999.90;999.90;;;19.00;55.20;;;;;;5027486;28;20029;-82
2022/05/06 07:58:06;;;;;;;1999.90;999.90;;;19.20;55.10;;;;;;5027184;28;20057;-83
2022/05/06 08:00:33;;;;;;;1999.90;999.90;;;19.30;55.00;;;;;;5027631;28;20025;-82
2022/05/06 08:05:46;;;;;;;1999.90;999.90;;;19.40;54.50;;;;;;5019079;28;20025;-82
2022/05/06 08:08:12;;;;;;;1999.90;999.90;;;19.50;54.50;;;;;;5010107;28;20489;-82
2022/05/06 08:10:38;;;;;;;1999.90;999.90;;;19.50;54.40;;;;;;5027151;28;20037;-82
2022/05/06 08:13:05;;;;;;;1999.90;999.90;;;19.60;54.30;;;;;;5039176;28;20025;-82
2022/05/06 08:15:31;;;;;;;1999.90;999.90;;;19.60;54.30;;;;;;5042222;28;20379;-82
2022/05/06 08:17:57;;;;;;;1999.90;999.90;;;19.70;54.20;;;;;;5028545;28;20064;-82
2022/05/06 08:20:23;;;;;;;1999.90;999.90;;;19.80;54.20;;;;;;5000141;28;20486;-82
2022/05/06 08:22:49;;;;;;;1999.90;999.90;;;20.00;54.00;;;;;;5030128;28;20034;-82
2022/05/06 08:25:15;;;;;;;1999.90;999.90;;;20.10;53.70;;;;;;5027141;28;20052;-82
2022/05/06 08:27:42;;;;;;;1999.90;999.90;;;20.30;53.50;;;;;;5026382;28;20045;-82
2022/05/06 08:30:10;;;;;;;1999.90;999.90;;;20.40;53.50;;;;;;5012171;28;20026;-82
2022/05/06 08:32:36;;;;;;;1999.90;999.90;;;20.50;53.40;;;;;;5025913;28;20026;-82
2022/05/06 08:35:03;;;;;;;1999.90;999.90;;;20.60;53.10;;;;;;5028564;28;20041;-82
2022/05/06 08:37:29;;;;;;;1999.90;999.90;;;20.80;53.00;;;;;;5023242;28;20371;-82
2022/05/06 08:39:56;;;;;;;1999.90;999.90;;;20.80;52.80;;;;;;5032526;28;20032;-82
2022/05/06 08:42:22;;;;;;;1999.90;999.90;;;21.00;52.80;;;;;;5033189;28;20026;-82
2022/05/06 08:53:05;;;;;;;1999.90;999.90;;;21.20;52.00;;;;;;5026411;28;20029;-82
2022/05/06 08:55:32;;;;;;;1999.90;999.90;;;21.10;52.10;;;;;;5031733;28;20486;-82
2022/05/06 08:57:58;;;;;;;1999.90;999.90;;;21.10;52.10;;;;;;4996579;28;20040;-83
2022/05/06 09:00:26;;;;;;;1999.90;999.90;;;21.20;52.10;;;;;;5028304;28;20032;-82
2022/05/06 09:02:52;;;;;;;1999.90;999.90;;;21.40;51.80;;;;;;5015931;28;20465;-82
2022/05/06 09:05:19;;;;;;;1999.90;999.90;;;21.50;51.60;;;;;;5029140;28;20025;-82
2022/05/06 09:08:00;;;;;;;1999.90;999.90;;;21.60;51.60;;;;;;5012571;28;20025;-83
2022/05/06 09:10:26;;;;;;;1999.90;999.90;;;21.60;51.40;;;;;;5030226;28;20037;-82
2022/05/06 09:12:56;;;;;;;1999.90;999.90;;;21.60;51.20;;;;;;5027337;28;20042;-82
2022/05/06 09:18:07;;;;;;;1999.90;999.90;;;21.80;51.00;;;;;;5038663;28;20049;-82
2022/05/06 09:20:34;;;;;;;1999.90;999.90;;;21.90;50.80;;;;;;5015251;28;20045;-82
2022/05/06 09:23:00;;;;;;;1999.90;999.90;;;21.90;50.60;;;;;;5012595;28;20052;-82
2022/05/06 09:25:36;;;;;;;1999.90;999.90;;;22.10;50.70;;;;;;5012111;28;20025;-82
2022/05/06 09:28:03;;;;;;;1999.90;999.90;;;22.20;50.40;;;;;;5029928;28;20034;-83
2022/05/06 09:30:29;;;;;;;1999.90;999.90;;;22.30;50.30;;;;;;5028628;28;20036;-83
2022/05/06 09:32:55;;;;;;;1999.90;999.90;;;22.30;50.20;;;;;;5032288;28;20493;-83
2022/05/06 09:35:25;;;;;;;1999.90;999.90;;;22.50;49.90;;;;;;5035597;28;20037;-83
2022/05/06 09:37:51;;;;;;;1999.90;999.90;;;22.60;49.60;;;;;;5032876;28;20029;-82
2022/05/06 09:40:21;;;;;;;1999.90;999.90;;;22.70;49.60;;;;;;5031041;28;20033;-83
2022/05/06 09:42:53;;;;;;;1999.90;999.90;;;22.70;49.50;;;;;;5013077;28;20033;-83
2022/05/06 09:45:38;;;;;;;1999.90;999.90;;;22.70;49.30;;;;;;5032072;28;20032;-82
2022/05/06 09:48:04;;;;;;;1999.90;999.90;;;22.70;49.30;;;;;;5030918;28;20025;-83
2022/05/06 09:50:32;;;;;;;1999.90;999.90;;;22.70;49.10;;;;;;5034149;28;20033;-82
2022/05/06 09:53:02;;;;;;;1999.90;999.90;;;22.70;49.20;;;;;;5029381;28;20470;-83
2022/05/06 09:55:31;;;;;;;1999.90;999.90;;;22.70;49.00;;;;;;5040093;28;20042;-83
2022/05/06 09:57:57;;;;;;;1999.90;999.90;;;22.80;49.00;;;;;;5028268;28;20033;-83
2022/05/06 10:00:24;;;;;;;1999.90;999.90;;;22.90;48.90;;;;;;5043745;28;20390;-82
2022/05/06 10:02:50;;;;;;;1999.90;999.90;;;22.90;49.10;;;;;;5029182;28;20033;-83
2022/05/06 10:05:16;;;;;;;1999.90;999.90;;;22.90;48.40;;;;;;5027891;28;20470;-82
2022/05/06 10:07:45;;;;;;;1999.90;999.90;;;23.00;48.40;;;;;;5027550;28;20033;-82
2022/05/06 10:10:17;;;;;;;1999.90;999.90;;;23.10;48.20;;;;;;5040410;28;20040;-83
2022/05/06 10:12:58;;;;;;;1999.90;999.90;;;23.40;48.10;;;;;;5011622;28;20045;-83
2022/05/06 10:15:28;;;;;;;1999.90;999.90;;;23.60;47.70;;;;;;5010656;28;20041;-83
2022/05/06 10:17:59;;;;;;;1999.90;999.90;;;23.60;47.80;;;;;;5028519;28;20045;-83
2022/05/06 10:20:38;;;;;;;1999.90;999.90;;;23.60;47.70;;;;;;5027614;28;20402;-82
2022/05/06 10:23:09;;;;;;;1999.90;999.90;;;23.70;47.50;;;;;;5027484;28;20037;-83
2022/05/06 10:25:42;;;;;;;1999.90;999.90;;;23.70;47.30;;;;;;5028515;28;20371;-82
2022/05/06 10:34:10;;;;;;;1999.90;999.90;;;23.80;46.90;;;;;;5020007;28;20030;-83
2022/05/06 10:36:49;;;;;;;1999.90;999.90;;;23.90;46.90;;;;;;5041592;28;20037;-83
2022/05/06 10:39:35;;;;;;;1999.90;999.90;;;24.00;46.70;;;;;;5010816;28;20048;-83
2022/05/06 10:42:11;;;;;;;1999.90;999.90;;;24.10;46.30;;;;;;5033782;28;20033;-83
2022/05/06 10:44:42;;;;;;;1999.90;999.90;;;24.00;46.10;;;;;;5031474;28;20036;-83
2022/05/06 10:47:11;;;;;;;1999.90;999.90;;;23.90;46.10;;;;;;5014482;28;20483;-83
2022/05/06 10:49:40;;;;;;;1999.90;999.90;;;23.90;45.80;;;;;;5028348;28;20034;-82
2022/05/06 10:52:20;;;;;;;1999.90;999.90;;;23.80;45.80;;;;;;5028136;28;20368;-83
2022/05/06 10:54:58;;;;;;;1999.90;999.90;;;23.80;45.70;;;;;;5012862;28;20045;-83
2022/05/06 10:57:25;;;;;;;1999.90;999.90;;;23.80;45.60;;;;;;5010914;28;20025;-83
2022/05/06 10:59:57;;;;;;;1999.90;999.90;;;23.90;45.60;;;;;;5028048;28;20037;-82
2022/05/06 11:02:25;;;;;;;1999.90;999.90;;;23.90;45.40;;;;;;5026278;28;20394;-83
2022/05/06 11:04:59;;;;;;;1999.90;999.90;;;23.80;45.40;;;;;;5026999;28;20037;-83
2022/05/06 11:07:26;;;;;;;1999.90;999.90;;;23.90;45.30;;;;;;5027780;28;20037;-83
2022/05/06 11:09:52;;;;;;;1999.90;999.90;;;23.90;45.30;;;;;;5041878;28;20030;-83
2022/05/06 11:12:34;;;;;;;1999.90;999.90;;;24.00;45.10;;;;;;5031310;28;20033;-83
2022/05/06 11:15:04;;;;;;;1999.90;999.90;;;24.00;44.90;;;;;;5029848;28;20048;-83
2022/05/06 11:17:33;;;;;;;1999.90;999.90;;;24.10;45.00;;;;;;5028176;28;20057;-83
2022/05/06 11:20:00;;;;;;;1999.90;999.90;;;24.20;44.80;;;;;;5027735;28;20025;-83
2022/05/06 11:22:27;;;;;;;1999.90;999.90;;;24.10;44.80;;;;;;5022057;28;20025;-83
2022/05/06 11:24:56;;;;;;;1999.90;999.90;;;24.10;44.90;;;;;;5027816;28;20034;-83
2022/05/06 11:27:22;;;;;;;1999.90;999.90;;;24.10;44.80;;;;;;5030453;28;20053;-83
2022/05/06 11:29:56;;;;;;;1999.90;999.90;;;24.10;44.70;;;;;;5027536;28;20028;-83
2022/05/06 11:32:23;;;;;;;1999.90;999.90;;;24.20;44.60;;;;;;5027183;28;20045;-83
2022/05/06 11:35:01;;;;;;;1999.90;999.90;;;24.30;44.60;;;;;;5027084;28;20387;-83
2022/05/06 11:37:34;;;;;;;1999.90;999.90;;;24.30;44.50;;;;;;5021474;28;20042;-83
2022/05/06 11:42:45;;;;;;;1999.90;999.90;;;24.30;44.60;;;;;;5043282;28;20029;-83
2022/05/06 11:48:08;;;;;;;1999.90;999.90;;;24.30;44.50;;;;;;5029292;28;20067;-83
2022/05/06 11:50:41;;;;;;;1999.90;999.90;;;24.10;44.60;;;;;;5027460;28;20042;-83
2022/05/06 11:53:15;;;;;;;1999.90;999.90;;;24.00;44.80;;;;;;5019075;28;20030;-82
2022/05/06 11:55:42;;;;;;;1999.90;999.90;;;24.00;44.80;;;;;;5030121;28;20045;-83
2022/05/06 11:58:11;;;;;;;1999.90;999.90;;;24.00;44.90;;;;;;4994126;28;20066;-83
2022/05/06 12:00:37;;;;;;;1999.90;999.90;;;23.80;44.80;;;;;;5025768;28;20041;-83
2022/05/06 12:03:04;;;;;;;1999.90;999.90;;;23.70;45.00;;;;;;5013164;28;20048;-83
2022/05/06 12:05:32;;;;;;;1999.90;999.90;;;23.80;44.90;;;;;;5011916;28;20041;-83
2022/05/06 12:07:58;;;;;;;1999.90;999.90;;;24.00;44.60;;;;;;5009832;28;20030;-83
2022/05/06 12:10:35;;;;;;;1999.90;999.90;;;24.10;44.40;;;;;;5028391;28;20033;-83
2022/05/06 12:13:07;;;;;;;1999.90;999.90;;;24.30;44.20;;;;;;5044241;28;20030;-83
2022/05/06 12:15:38;;;;;;;1999.90;999.90;;;24.40;44.00;;;;;;5030075;28;20390;-83
2022/05/06 12:18:11;;;;;;;1999.90;999.90;;;24.20;43.80;;;;;;4999784;28;20052;-84
2022/05/06 12:20:46;;;;;;;1999.90;999.90;;;24.10;44.00;;;;;;5029772;28;20026;-82
2022/05/06 12:23:12;;;;;;;1999.90;999.90;;;24.10;44.20;;;;;;5013672;28;20036;-82
2022/05/06 12:25:39;;;;;;;1999.90;999.90;;;24.20;44.10;;;;;;5013695;28;20475;-83
2022/05/06 12:28:18;;;;;;;1999.90;999.90;;;24.40;44.00;;;;;;5044245;28;20045;-83
2022/05/06 12:30:45;;;;;;;1999.90;999.90;;;24.40;43.90;;;;;;5029594;28;20044;-83
2022/05/06 12:33:19;;;;;;;1999.90;999.90;;;24.40;43.90;;;;;;5016564;28;20513;-83
2022/05/06 12:36:02;;;;;;;1999.90;999.90;;;24.60;43.80;;;;;;5030051;28;20041;-83
2022/05/06 12:38:40;;;;;;;1999.90;999.90;;;24.80;43.60;;;;;;5044592;28;20048;-83
2022/05/06 12:41:19;;;;;;;1999.90;999.90;;;24.90;43.40;;;;;;5032462;28;20382;-83
2022/05/06 12:43:49;;;;;;;1999.90;999.90;;;24.90;43.40;;;;;;5041793;28;20022;-83
2022/05/06 12:46:27;;;;;;;1999.90;999.90;;;25.00;43.20;;;;;;5013093;28;20041;-83
2022/05/06 12:51:40;;;;;;;1999.90;999.90;;;24.80;43.20;;;;;;5045363;28;20029;-83